Time;durP1;ratioP1;P1;durP2;ratioP2;P2;SDS_P1;SDS_P2;PMS_P1;PMS_P2;Temp;Humidity;BMP_temperature;BMP_pressure;BME280_temperature;BME280_humidity;BME280_pressure;Samples;Min_cycle;Max_cycle;Signal;HPM_P1;HPM_P2
2023/02/22 00:01:50;;;;;;;16.35;5.65;;;11.10;94.20;;;;;;4956798;28;20026;-69
2023/02/22 00:04:38;;;;;;;21.10;7.05;;;11.00;94.10;;;;;;4965628;28;20062;-71
2023/02/22 00:07:06;;;;;;;14.93;4.60;;;11.00;94.10;;;;;;4969961;28;20522;-68
2023/02/22 00:09:32;;;;;;;15.05;5.00;;;11.00;94.20;;;;;;4960197;28;20054;-68
2023/02/22 00:11:57;;;;;;;15.95;5.50;;;11.00;94.10;;;;;;4965619;28;20055;-68
2023/02/22 00:14:26;;;;;;;13.80;4.60;;;11.00;94.10;;;;;;4959684;28;20430;-67
2023/02/22 00:16:55;;;;;;;17.95;5.05;;;11.00;94.10;;;;;;4974858;28;20027;-67
2023/02/22 00:19:20;;;;;;;11.85;4.40;;;11.00;94.10;;;;;;4965082;28;20296;-67
2023/02/22 00:21:54;;;;;;;18.15;5.68;;;11.00;94.10;;;;;;4966913;28;20126;-67
2023/02/22 00:24:22;;;;;;;12.57;4.57;;;11.00;94.20;;;;;;4961537;28;20090;-67
2023/02/22 00:26:54;;;;;;;17.52;6.18;;;11.00;94.20;;;;;;4960632;28;20033;-68
2023/02/22 00:29:22;;;;;;;14.65;5.03;;;10.90;94.20;;;;;;4960949;28;20373;-67
2023/02/22 00:31:47;;;;;;;17.73;5.47;;;10.90;94.30;;;;;;4973467;28;20031;-67
2023/02/22 00:34:13;;;;;;;17.67;5.53;;;10.90;94.30;;;;;;4969838;28;20037;-66
2023/02/22 00:36:44;;;;;;;17.58;4.88;;;10.90;94.40;;;;;;4971296;28;20054;-66
2023/02/22 00:39:11;;;;;;;15.93;4.90;;;10.80;94.40;;;;;;4963921;28;20042;-66
2023/02/22 00:41:37;;;;;;;12.73;4.28;;;10.90;94.50;;;;;;4960783;28;20478;-66
2023/02/22 00:44:02;;;;;;;18.33;4.57;;;10.80;94.60;;;;;;4946818;28;20062;-66
2023/02/22 00:46:28;;;;;;;22.95;5.20;;;10.80;94.50;;;;;;4973650;28;20118;-66
2023/02/22 00:48:53;;;;;;;19.52;4.35;;;10.80;94.60;;;;;;4961652;28;20019;-66
2023/02/22 00:51:19;;;;;;;20.08;5.85;;;10.80;94.60;;;;;;4961348;28;20061;-66
2023/02/22 00:53:45;;;;;;;19.33;5.07;;;10.80;94.60;;;;;;4963533;28;20054;-66
2023/02/22 00:56:10;;;;;;;15.10;4.10;;;10.80;94.60;;;;;;4970731;28;20474;-66
2023/02/22 00:58:36;;;;;;;15.60;5.15;;;10.90;94.70;;;;;;4966295;28;20026;-66
2023/02/22 01:01:02;;;;;;;14.98;4.32;;;10.90;94.70;;;;;;4971677;28;20034;-66
2023/02/22 01:03:27;;;;;;;19.20;4.90;;;10.80;94.70;;;;;;4972400;28;20150;-66
2023/02/22 01:05:53;;;;;;;11.32;4.43;;;10.90;94.70;;;;;;4968245;28;20038;-66
2023/02/22 01:08:18;;;;;;;13.30;4.45;;;10.90;94.70;;;;;;4969245;28;20418;-66
2023/02/22 01:10:45;;;;;;;17.55;5.57;;;10.80;94.70;;;;;;4951897;28;20039;-66
2023/02/22 01:13:11;;;;;;;12.90;4.38;;;10.80;94.60;;;;;;4970510;28;20374;-66
2023/02/22 01:15:41;;;;;;;14.85;3.85;;;10.80;94.70;;;;;;4954371;28;20035;-66
2023/02/22 01:18:07;;;;;;;10.82;4.82;;;10.80;94.70;;;;;;4961664;28;20027;-66
2023/02/22 01:20:32;;;;;;;14.90;4.10;;;10.90;94.70;;;;;;4953948;28;20039;-66
2023/02/22 01:23:02;;;;;;;13.32;4.10;;;10.80;94.70;;;;;;4954711;28;20061;-66
2023/02/22 01:25:29;;;;;;;14.13;5.47;;;10.80;94.70;;;;;;4954143;28;20066;-66
2023/02/22 01:27:57;;;;;;;15.15;4.60;;;10.90;94.70;;;;;;4968936;28;20034;-66
2023/02/22 01:30:28;;;;;;;12.30;4.70;;;10.90;94.80;;;;;;4955786;28;20035;-66
2023/02/22 01:32:54;;;;;;;17.40;4.53;;;10.90;94.80;;;;;;4964836;28;20061;-66
2023/02/22 01:35:24;;;;;;;19.10;4.90;;;10.90;94.80;;;;;;4963951;28;20525;-66
2023/02/22 01:37:50;;;;;;;14.07;4.70;;;10.90;94.80;;;;;;4953937;28;20054;-66
2023/02/22 01:40:20;;;;;;;11.65;4.18;;;10.80;94.90;;;;;;4968062;28;20034;-66
2023/02/22 01:42:50;;;;;;;13.23;5.10;;;10.80;94.90;;;;;;4947277;28;20030;-67
2023/02/22 01:45:40;;;;;;;16.33;5.88;;;10.80;95.00;;;;;;4966291;28;20098;-65
2023/02/22 01:48:19;;;;;;;12.52;5.32;;;10.80;95.10;;;;;;4970629;28;20023;-66
2023/02/22 01:50:56;;;;;;;15.98;4.88;;;10.70;95.30;;;;;;4954307;28;20572;-66
2023/02/22 01:53:29;;;;;;;15.45;5.10;;;10.70;95.20;;;;;;4966562;28;20047;-66
2023/02/22 01:55:55;;;;;;;13.85;4.93;;;10.70;95.40;;;;;;4965221;28;20042;-65
2023/02/22 01:58:23;;;;;;;13.35;4.43;;;10.60;95.50;;;;;;4966300;28;20042;-66
2023/02/22 02:00:49;;;;;;;12.38;5.13;;;10.60;95.60;;;;;;4954471;28;20039;-66
2023/02/22 02:03:20;;;;;;;22.13;5.72;;;10.50;95.70;;;;;;4960340;28;20487;-65
2023/02/22 02:05:48;;;;;;;11.50;4.80;;;10.50;95.80;;;;;;4939849;28;20059;-65
2023/02/22 02:08:34;;;;;;;14.77;5.43;;;10.50;95.90;;;;;;4967787;28;20053;-65
2023/02/22 02:11:02;;;;;;;17.63;5.10;;;10.40;96.00;;;;;;4961019;28;20038;-65
2023/02/22 02:13:27;;;;;;;16.73;4.40;;;10.40;96.00;;;;;;4951452;28;20015;-65
2023/02/22 02:15:55;;;;;;;17.73;5.57;;;10.30;96.10;;;;;;4957293;28;20433;-65
2023/02/22 02:18:21;;;;;;;17.67;5.65;;;10.30;96.20;;;;;;4966802;28;20037;-65
2023/02/22 02:21:13;;;;;;;22.00;6.07;;;10.30;96.30;;;;;;4961494;28;20035;-66
2023/02/22 02:24:03;;;;;;;12.05;5.03;;;10.30;96.40;;;;;;4974262;28;20015;-65
2023/02/22 02:26:50;;;;;;;19.17;5.05;;;10.20;96.50;;;;;;4967991;28;20121;-66
2023/02/22 02:29:25;;;;;;;14.60;5.22;;;10.20;96.60;;;;;;4969924;28;20023;-66
2023/02/22 02:31:53;;;;;;;;;;;10.20;96.60;;;;;;4972091;28;20055;-65
2023/02/22 02:34:33;;;;;;;15.90;4.93;;;10.10;96.40;;;;;;4969031;28;19910;-65
2023/02/22 02:37:23;;;;;;;12.10;4.28;;;10.00;96.60;;;;;;4961011;28;20027;-65
2023/02/22 02:40:25;;;;;;;12.60;5.30;;;10.10;96.80;;;;;;4944332;28;20042;-65
2023/02/22 02:43:14;;;;;;;18.23;4.80;;;10.00;96.80;;;;;;4937807;28;20038;-66
2023/02/22 02:45:47;;;;;;;12.32;4.85;;;10.00;96.90;;;;;;4959242;28;20127;-66
2023/02/22 02:48:16;;;;;;;17.15;4.57;;;10.00;97.10;;;;;;4968750;28;20110;-66
2023/02/22 02:50:46;;;;;;;18.00;5.35;;;10.00;97.10;;;;;;4969974;28;20054;-66
2023/02/22 02:53:16;;;;;;;14.48;4.82;;;10.00;97.30;;;;;;4956961;28;20043;-66
2023/02/22 02:55:41;;;;;;;12.40;4.82;;;9.90;97.30;;;;;;4952013;28;20034;-67
2023/02/22 02:58:08;;;;;;;15.75;4.85;;;9.90;97.30;;;;;;4974024;28;20031;-67
2023/02/22 03:00:40;;;;;;;15.63;4.88;;;9.90;97.40;;;;;;4972022;28;20039;-67
2023/02/22 03:03:26;;;;;;;13.07;3.78;;;9.90;97.50;;;;;;4960896;28;20038;-67
2023/02/22 03:06:23;;;;;;;18.83;5.07;;;9.90;97.50;;;;;;4964548;28;20054;-67
2023/02/22 03:09:12;;;;;;;18.65;4.53;;;9.80;97.60;;;;;;4956135;28;20046;-67
2023/02/22 03:12:14;;;;;;;18.85;5.05;;;9.80;97.60;;;;;;4950988;28;20490;-67
2023/02/22 03:15:00;;;;;;;11.35;4.95;;;9.80;97.70;;;;;;4966910;28;20023;-67
2023/02/22 03:17:43;;;;;;;13.95;5.70;;;9.80;97.80;;;;;;4957221;28;20394;-66
2023/02/22 03:20:15;;;;;;;16.17;5.13;;;9.70;97.90;;;;;;4973695;28;20399;-67
2023/02/22 03:23:10;;;;;;;16.65;5.18;;;9.80;98.00;;;;;;4966539;28;20026;-67
2023/02/22 03:25:48;;;;;;;19.52;5.55;;;9.80;98.10;;;;;;4970378;28;20089;-66
2023/02/22 03:28:18;;;;;;;17.30;5.05;;;9.80;98.10;;;;;;4973202;28;20037;-66
2023/02/22 03:30:55;;;;;;;15.27;5.30;;;9.80;98.20;;;;;;4958325;28;20035;-66
2023/02/22 03:33:32;;;;;;;18.35;6.38;;;9.80;98.30;;;;;;4955713;28;20454;-66
2023/02/22 03:36:46;;;;;;;14.88;4.88;;;9.80;98.40;;;;;;4960864;28;20351;-66
2023/02/22 03:39:15;;;;;;;11.90;4.43;;;9.90;98.40;;;;;;4955332;28;20051;-66
2023/02/22 03:41:47;;;;;;;14.50;5.15;;;9.90;98.40;;;;;;4966716;28;20041;-67
2023/02/22 03:44:16;;;;;;;11.98;4.95;;;9.90;98.70;;;;;;4964626;28;20031;-67
2023/02/22 03:46:45;;;;;;;18.88;4.90;;;9.90;98.60;;;;;;4960261;28;20038;-67
2023/02/22 03:49:34;;;;;;;17.48;4.50;;;9.90;98.70;;;;;;4945137;28;20031;-67
2023/02/22 03:52:01;;;;;;;13.02;5.40;;;10.00;98.70;;;;;;4973564;28;20385;-67
2023/02/22 03:54:28;;;;;;;21.73;4.65;;;10.00;98.70;;;;;;4961182;28;20050;-66
2023/02/22 03:56:57;;;;;;;12.50;4.55;;;10.00;98.80;;;;;;4965202;28;20054;-66
2023/02/22 03:59:26;;;;;;;15.88;5.38;;;10.00;99.10;;;;;;4967478;28;20031;-66
2023/02/22 04:01:52;;;;;;;14.10;4.93;;;10.00;98.90;;;;;;4965653;28;20034;-66
2023/02/22 04:04:20;;;;;;;20.15;6.55;;;10.00;98.90;;;;;;4964703;28;20038;-65
2023/02/22 04:06:46;;;;;;;13.98;5.45;;;10.00;99.00;;;;;;4961704;28;20039;-66
2023/02/22 04:09:13;;;;;;;16.88;5.75;;;10.00;99.00;;;;;;4965650;28;20135;-66
2023/02/22 04:11:38;;;;;;;15.40;5.63;;;10.10;99.10;;;;;;4964136;28;20027;-66
2023/02/22 04:14:04;;;;;;;15.93;5.78;;;10.10;99.10;;;;;;4958210;28;20432;-66
2023/02/22 04:16:30;;;;;;;16.38;5.63;;;10.00;99.10;;;;;;4960051;28;20042;-66
2023/02/22 04:18:55;;;;;;;14.68;5.15;;;10.00;99.10;;;;;;4955321;28;20045;-66
2023/02/22 04:21:21;;;;;;;17.13;5.68;;;10.00;99.20;;;;;;4964461;28;20082;-66
2023/02/22 04:23:47;;;;;;;18.00;5.22;;;10.00;99.20;;;;;;4956422;28;20049;-66
2023/02/22 04:26:12;;;;;;;14.63;5.78;;;10.00;99.20;;;;;;4969145;28;20037;-66
2023/02/22 04:28:38;;;;;;;17.00;4.63;;;10.00;99.20;;;;;;4961043;28;20034;-66
2023/02/22 04:31:03;;;;;;;15.52;4.75;;;9.90;99.20;;;;;;4965432;28;20019;-66
2023/02/22 04:33:29;;;;;;;13.25;4.55;;;9.90;99.20;;;;;;4958218;28;20053;-66
2023/02/22 04:35:56;;;;;;;19.15;6.18;;;9.90;99.30;;;;;;4967756;28;20027;-66
2023/02/22 04:38:24;;;;;;;21.52;5.85;;;9.90;99.30;;;;;;4965691;28;20043;-66
2023/02/22 04:40:51;;;;;;;19.45;6.20;;;9.80;99.40;;;;;;4951001;28;20387;-66
2023/02/22 04:43:16;;;;;;;18.95;6.75;;;9.70;99.40;;;;;;4961880;28;20030;-66
2023/02/22 04:45:42;;;;;;;16.25;5.55;;;9.70;99.50;;;;;;4973427;28;20039;-66
2023/02/22 04:48:08;;;;;;;17.95;5.60;;;9.70;99.60;;;;;;4970569;28;20034;-66
2023/02/22 04:50:33;;;;;;;14.27;5.85;;;9.70;99.70;;;;;;4957997;28;20037;-66
2023/02/22 04:52:59;;;;;;;15.55;5.30;;;9.70;99.70;;;;;;4966195;28;20403;-66
2023/02/22 04:55:25;;;;;;;17.45;5.43;;;9.70;99.80;;;;;;4964274;28;20517;-66
2023/02/22 04:57:51;;;;;;;16.00;5.70;;;9.70;99.80;;;;;;4972372;28;20030;-66
2023/02/22 05:00:17;;;;;;;17.35;5.82;;;9.70;99.80;;;;;;4959036;28;20376;-66
2023/02/22 05:02:44;;;;;;;16.40;4.80;;;9.70;99.90;;;;;;4959897;28;20022;-65
2023/02/22 05:05:10;;;;;;;17.40;5.90;;;9.70;99.90;;;;;;4963874;28;20035;-66
2023/02/22 05:07:35;;;;;;;22.08;6.68;;;9.70;99.90;;;;;;4958767;28;20479;-66
2023/02/22 05:10:01;;;;;;;15.27;5.25;;;9.70;99.90;;;;;;4955427;28;20035;-66
2023/02/22 05:12:27;;;;;;;14.77;4.60;;;9.60;99.90;;;;;;4968025;28;20033;-66
2023/02/22 05:14:53;;;;;;;17.85;5.57;;;9.60;99.90;;;;;;4946525;28;20031;-67
2023/02/22 05:17:18;;;;;;;14.30;5.30;;;9.60;99.90;;;;;;4969324;28;20041;-66
2023/02/22 05:19:44;;;;;;;17.08;5.70;;;9.60;99.90;;;;;;4964632;28;20077;-67
2023/02/22 05:22:09;;;;;;;16.30;5.97;;;9.60;99.90;;;;;;4963085;28;20035;-67
2023/02/22 05:24:35;;;;;;;10.65;4.50;;;9.60;99.90;;;;;;4944085;28;20777;-67
2023/02/22 05:27:00;;;;;;;14.20;5.13;;;9.60;99.90;;;;;;4955586;28;20479;-66
2023/02/22 05:29:26;;;;;;;20.35;6.30;;;9.50;99.90;;;;;;4965943;28;20027;-65
2023/02/22 05:31:52;;;;;;;16.20;6.25;;;9.50;99.90;;;;;;4955010;28;20131;-64
2023/02/22 05:34:17;;;;;;;15.93;6.38;;;9.60;99.90;;;;;;4957379;28;20031;-64
2023/02/22 05:36:43;;;;;;;18.80;5.90;;;9.50;99.90;;;;;;4962328;28;20035;-64
2023/02/22 05:39:09;;;;;;;22.63;7.43;;;9.50;99.90;;;;;;4948685;28;20049;-65
2023/02/22 05:41:34;;;;;;;22.17;7.43;;;9.50;99.90;;;;;;4954685;28;20118;-64
2023/02/22 05:44:01;;;;;;;17.58;6.28;;;9.50;99.90;;;;;;4965949;28;20541;-63
2023/02/22 05:46:27;;;;;;;21.52;7.15;;;9.50;99.90;;;;;;4953246;28;20027;-63
2023/02/22 05:48:52;;;;;;;11.35;5.85;;;9.50;99.90;;;;;;4966382;28;20022;-63
2023/02/22 05:51:18;;;;;;;18.00;6.85;;;9.50;99.90;;;;;;4968968;28;20030;-63
2023/02/22 05:53:44;;;;;;;22.92;7.60;;;9.50;99.90;;;;;;4962782;28;20043;-63
2023/02/22 05:56:09;;;;;;;17.55;6.45;;;9.50;99.90;;;;;;4956612;28;20134;-62
2023/02/22 05:58:35;;;;;;;21.17;7.28;;;9.50;99.90;;;;;;4963905;28;20480;-63
2023/02/22 06:01:01;;;;;;;19.63;6.63;;;9.50;99.90;;;;;;4965444;28;20333;-63
2023/02/22 06:03:26;;;;;;;26.52;7.68;;;9.50;99.90;;;;;;4969189;28;20034;-63
2023/02/22 06:05:52;;;;;;;15.00;7.68;;;9.50;99.90;;;;;;4963347;28;20113;-63
2023/02/22 06:08:17;;;;;;;19.95;7.25;;;9.40;99.90;;;;;;4971003;28;20030;-63
2023/02/22 06:10:43;;;;;;;17.05;7.07;;;9.40;99.90;;;;;;4968281;28;20030;-63
2023/02/22 06:13:09;;;;;;;18.83;6.78;;;9.50;99.90;;;;;;4962328;28;20030;-63
2023/02/22 06:15:34;;;;;;;23.20;7.90;;;9.50;99.90;;;;;;4959261;28;20054;-64
2023/02/22 06:18:00;;;;;;;20.27;7.13;;;9.50;99.90;;;;;;4964345;28;20027;-64
2023/02/22 06:20:28;;;;;;;14.10;7.03;;;9.50;99.90;;;;;;4963021;28;20406;-64
2023/02/22 06:22:55;;;;;;;23.50;7.95;;;9.50;99.90;;;;;;4956205;28;20082;-64
2023/02/22 06:25:23;;;;;;;21.27;7.45;;;9.50;99.90;;;;;;4955755;28;20122;-64
2023/02/22 06:27:49;;;;;;;13.77;6.30;;;9.50;99.90;;;;;;4940292;28;20027;-65
2023/02/22 06:30:17;;;;;;;29.63;8.25;;;9.50;99.90;;;;;;4960513;28;20026;-65
2023/02/22 06:32:42;;;;;;;31.15;9.45;;;9.50;99.90;;;;;;4969090;28;20122;-64
2023/02/22 06:35:08;;;;;;;15.45;6.68;;;9.50;99.90;;;;;;4965559;28;20379;-66
2023/02/22 06:37:34;;;;;;;17.63;7.00;;;9.50;99.90;;;;;;4961179;28;20062;-65
2023/02/22 06:39:59;;;;;;;17.20;6.22;;;9.50;99.90;;;;;;4957392;28;20554;-65
2023/02/22 06:42:25;;;;;;;13.82;6.30;;;9.50;99.90;;;;;;4951982;28;20026;-66
2023/02/22 06:44:50;;;;;;;24.00;7.45;;;9.50;99.90;;;;;;4959662;28;20109;-65
2023/02/22 06:47:16;;;;;;;27.90;7.25;;;9.50;99.90;;;;;;4966167;28;20030;-64
2023/02/22 06:49:42;;;;;;;15.85;6.13;;;9.50;99.90;;;;;;4958446;28;20053;-65
2023/02/22 06:52:08;;;;;;;18.58;6.80;;;9.50;99.90;;;;;;4967387;28;20089;-65
2023/02/22 06:54:35;;;;;;;27.05;8.68;;;9.50;99.90;;;;;;4957082;28;20082;-65
2023/02/22 06:57:00;;;;;;;21.35;9.80;;;9.50;99.90;;;;;;4952584;28;20051;-65
2023/02/22 06:59:26;;;;;;;20.85;6.95;;;9.50;99.90;;;;;;4961057;28;20138;-65
2023/02/22 07:01:52;;;;;;;18.75;7.65;;;9.50;99.90;;;;;;4962474;28;20031;-65
2023/02/22 07:04:18;;;;;;;23.05;7.32;;;9.50;99.90;;;;;;4961988;28;20367;-65
2023/02/22 07:06:48;;;;;;;20.77;7.03;;;9.50;99.90;;;;;;4956080;28;20415;-65
2023/02/22 07:09:15;;;;;;;20.80;7.63;;;9.60;99.90;;;;;;4959627;28;20029;-66
2023/02/22 07:11:42;;;;;;;13.27;6.13;;;9.70;99.90;;;;;;4969293;28;20096;-66
2023/02/22 07:14:08;;;;;;;22.23;6.00;;;9.60;99.90;;;;;;4963387;28;20038;-66
2023/02/22 07:16:33;;;;;;;23.33;6.47;;;9.60;99.90;;;;;;4957065;28;20026;-65
2023/02/22 07:18:59;;;;;;;17.40;6.05;;;9.60;99.90;;;;;;4954218;28;20090;-65
2023/02/22 07:21:25;;;;;;;20.48;6.82;;;9.70;99.90;;;;;;4969432;28;20069;-65
2023/02/22 07:23:55;;;;;;;17.08;5.95;;;9.70;99.90;;;;;;4973055;28;20061;-65
2023/02/22 07:26:22;;;;;;;18.90;7.38;;;9.70;99.90;;;;;;4969411;28;20096;-65
2023/02/22 07:28:48;;;;;;;20.13;7.07;;;9.70;99.90;;;;;;4965707;28;20019;-65
2023/02/22 07:31:14;;;;;;;18.27;6.80;;;9.80;99.90;;;;;;4962311;28;20086;-65
2023/02/22 07:33:40;;;;;;;19.05;6.85;;;9.80;99.90;;;;;;4962098;28;20038;-65
2023/02/22 07:36:06;;;;;;;20.63;5.88;;;9.80;99.90;;;;;;4955426;28;20034;-65
2023/02/22 07:38:32;;;;;;;24.83;7.22;;;9.80;99.90;;;;;;4967979;28;20086;-67
2023/02/22 07:40:58;;;;;;;21.25;7.13;;;9.80;99.90;;;;;;4960988;28;20078;-66
2023/02/22 07:43:25;;;;;;;21.80;6.97;;;9.90;99.90;;;;;;4960002;28;20031;-67
2023/02/22 07:45:55;;;;;;;21.38;7.65;;;9.90;99.90;;;;;;4963793;28;20031;-67
2023/02/22 07:48:23;;;;;;;18.02;6.38;;;9.90;99.90;;;;;;4958133;28;20030;-67
2023/02/22 07:50:50;;;;;;;24.10;6.63;;;9.90;99.90;;;;;;4942836;28;20028;-66
2023/02/22 07:53:22;;;;;;;24.02;7.93;;;10.00;99.90;;;;;;4970143;28;20130;-66
2023/02/22 07:55:51;;;;;;;21.60;6.40;;;10.00;99.90;;;;;;4955460;28;20043;-66
2023/02/22 07:58:20;;;;;;;18.85;6.53;;;10.00;99.90;;;;;;4945327;28;20104;-66
2023/02/22 08:00:48;;;;;;;18.77;6.90;;;10.00;99.90;;;;;;4965548;28;20106;-66
2023/02/22 08:03:16;;;;;;;17.95;6.13;;;10.00;99.90;;;;;;4964843;28;20035;-66
2023/02/22 08:05:46;;;;;;;14.88;5.75;;;10.00;99.90;;;;;;4972811;28;20039;-66
2023/02/22 08:08:14;;;;;;;24.50;6.65;;;10.10;99.90;;;;;;4966956;28;20052;-65
2023/02/22 08:10:40;;;;;;;21.48;6.07;;;10.10;99.90;;;;;;4938027;29;20028;-65
2023/02/22 08:13:06;;;;;;;24.33;6.00;;;10.10;99.90;;;;;;4961875;28;20030;-65
2023/02/22 08:15:34;;;;;;;17.95;6.45;;;10.10;99.90;;;;;;4955288;28;20443;-66
2023/02/22 08:18:03;;;;;;;21.65;6.53;;;10.10;99.90;;;;;;4965824;28;20034;-66
2023/02/22 08:20:29;;;;;;;15.30;6.88;;;10.10;99.90;;;;;;4954531;28;20039;-66
2023/02/22 08:22:56;;;;;;;19.30;6.93;;;10.10;99.90;;;;;;4965896;28;20082;-65
2023/02/22 08:25:24;;;;;;;19.83;7.35;;;10.20;99.90;;;;;;4955634;28;20053;-66
2023/02/22 08:27:50;;;;;;;18.23;6.40;;;10.20;99.90;;;;;;4942050;28;20093;-66
2023/02/22 08:30:21;;;;;;;23.88;6.30;;;10.30;99.90;;;;;;4954666;28;20479;-65
2023/02/22 08:32:48;;;;;;;18.98;7.20;;;10.30;99.90;;;;;;4963833;28;20379;-66
2023/02/22 08:35:16;;;;;;;16.17;7.05;;;10.30;99.90;;;;;;4955306;28;20031;-65
2023/02/22 08:37:50;;;;;;;17.95;6.45;;;10.40;99.90;;;;;;4958800;28;20399;-65
2023/02/22 08:40:20;;;;;;;25.95;7.03;;;10.40;99.90;;;;;;4960381;28;20069;-65
2023/02/22 08:42:46;;;;;;;21.80;7.55;;;10.40;99.90;;;;;;4968825;28;20124;-65
2023/02/22 08:45:12;;;;;;;17.50;6.95;;;10.50;99.90;;;;;;4946044;28;20035;-67
2023/02/22 08:47:38;;;;;;;19.88;6.43;;;10.50;99.90;;;;;;4960645;28;20117;-64
2023/02/22 08:50:05;;;;;;;26.80;7.63;;;10.50;99.90;;;;;;4973516;28;20107;-66
2023/02/22 08:52:31;;;;;;;22.10;6.28;;;10.60;99.90;;;;;;4958158;28;20051;-66
2023/02/22 08:54:56;;;;;;;24.55;6.95;;;10.60;99.90;;;;;;4974219;28;20074;-66
2023/02/22 08:57:22;;;;;;;28.67;7.15;;;10.70;99.90;;;;;;4952816;28;20030;-66
2023/02/22 08:59:47;;;;;;;24.02;6.32;;;10.70;99.90;;;;;;4960044;28;20126;-66
2023/02/22 09:02:19;;;;;;;16.70;7.00;;;10.70;99.80;;;;;;4960434;28;20046;-66
2023/02/22 09:04:45;;;;;;;18.23;6.47;;;10.80;99.80;;;;;;4965227;28;20078;-64
2023/02/22 09:07:10;;;;;;;20.98;6.65;;;10.80;99.70;;;;;;4966351;28;20063;-65
2023/02/22 09:09:36;;;;;;;20.65;7.65;;;10.90;99.70;;;;;;4954099;28;20097;-66
2023/02/22 09:12:02;;;;;;;20.70;6.13;;;10.90;99.60;;;;;;4957170;28;20035;-65
2023/02/22 09:14:28;;;;;;;16.00;6.75;;;10.90;99.50;;;;;;4961701;28;20382;-65
2023/02/22 09:16:54;;;;;;;16.90;6.65;;;11.00;99.50;;;;;;4972642;28;20035;-65
2023/02/22 09:19:19;;;;;;;15.40;5.72;;;11.00;99.40;;;;;;4956097;28;20034;-65
2023/02/22 09:21:54;;;;;;;15.88;6.20;;;11.10;99.30;;;;;;4943533;28;20097;-64
2023/02/22 09:24:19;;;;;;;20.77;5.78;;;11.10;99.30;;;;;;4960969;28;20042;-65
2023/02/22 09:26:46;;;;;;;13.30;5.72;;;11.10;99.20;;;;;;4954958;28;20039;-65
2023/02/22 09:29:12;;;;;;;17.90;6.18;;;11.20;99.10;;;;;;4958071;28;20031;-65
2023/02/22 09:31:39;;;;;;;19.20;5.80;;;11.30;99.10;;;;;;4945343;28;20474;-67
2023/02/22 09:34:19;;;;;;;29.33;6.15;;;11.30;99.10;;;;;;4961448;28;20119;-67
2023/02/22 09:36:49;;;;;;;16.48;5.43;;;11.40;99.00;;;;;;4972075;28;20031;-67
2023/02/22 09:39:17;;;;;;;26.10;5.80;;;11.40;98.90;;;;;;4963165;28;20046;-67
2023/02/22 09:42:11;;;;;;;19.05;5.95;;;11.50;98.80;;;;;;4946366;28;20038;-67
2023/02/22 09:45:05;;;;;;;17.50;6.70;;;11.50;98.80;;;;;;4954132;28;20031;-68
2023/02/22 09:47:45;;;;;;;13.38;4.50;;;11.50;98.70;;;;;;4963103;28;20030;-68
2023/02/22 09:50:16;;;;;;;12.10;5.15;;;11.60;98.60;;;;;;4948282;28;20074;-67
2023/02/22 09:52:52;;;;;;;19.52;6.30;;;11.60;98.60;;;;;;4953744;28;20047;-68
2023/02/22 09:55:32;;;;;;;16.77;5.40;;;11.60;98.40;;;;;;4956359;28;20031;-67
2023/02/22 09:58:06;;;;;;;15.30;5.20;;;11.70;98.50;;;;;;4948668;28;20106;-67
2023/02/22 10:00:39;;;;;;;12.43;4.70;;;11.70;98.20;;;;;;4964682;28;20070;-68
2023/02/22 10:03:46;;;;;;;17.90;5.13;;;11.80;98.10;;;;;;4949997;28;20034;-67
2023/02/22 10:06:20;;;;;;;16.33;4.80;;;11.90;98.20;;;;;;4951275;28;20074;-67
2023/02/22 10:08:53;;;;;;;12.63;5.50;;;11.90;98.00;;;;;;4961791;28;20513;-67
2023/02/22 10:11:53;;;;;;;17.65;5.22;;;11.90;98.00;;;;;;4953328;28;20104;-68
2023/02/22 10:14:37;;;;;;;16.02;6.20;;;12.00;98.00;;;;;;4953581;28;20047;-67
2023/02/22 10:17:35;;;;;;;14.27;5.63;;;12.00;97.80;;;;;;4970165;28;21076;-68
2023/02/22 10:20:27;;;;;;;12.93;5.47;;;12.10;97.70;;;;;;4939993;28;20324;-68
2023/02/22 10:22:59;;;;;;;16.48;4.75;;;12.10;97.70;;;;;;4950898;28;20303;-67
2023/02/22 10:25:33;;;;;;;19.40;6.00;;;12.10;97.70;;;;;;4971744;28;20049;-67
2023/02/22 10:28:03;;;;;;;15.50;5.28;;;12.10;97.60;;;;;;4953415;28;20246;-67
2023/02/22 10:30:38;;;;;;;13.57;5.40;;;12.10;97.50;;;;;;4938917;28;20038;-67
2023/02/22 10:33:13;;;;;;;21.10;7.05;;;12.20;97.50;;;;;;4960312;28;20028;-66
2023/02/22 10:35:40;;;;;;;15.55;5.30;;;12.20;97.30;;;;;;4951583;28;20030;-68
2023/02/22 10:38:23;;;;;;;14.88;4.90;;;12.30;97.30;;;;;;4962896;28;20108;-67
2023/02/22 10:41:18;;;;;;;14.65;5.13;;;12.30;97.30;;;;;;4963640;28;20061;-68
2023/02/22 10:43:46;;;;;;;20.85;5.22;;;12.40;97.30;;;;;;4946733;28;20033;-66
2023/02/22 10:46:19;;;;;;;12.25;5.15;;;12.40;97.20;;;;;;4974621;28;20027;-68
2023/02/22 10:48:49;;;;;;;9.60;4.70;;;12.40;97.00;;;;;;4966913;28;20028;-67
2023/02/22 10:51:15;;;;;;;16.88;5.30;;;12.40;96.90;;;;;;4971868;28;20367;-66
2023/02/22 10:53:40;;;;;;;15.80;5.30;;;12.50;96.90;;;;;;4960864;28;20130;-66
2023/02/22 10:56:06;;;;;;;15.15;5.55;;;12.50;96.90;;;;;;4959520;28;20416;-66
2023/02/22 10:58:54;;;;;;;12.45;4.80;;;12.60;96.80;;;;;;4962371;28;20043;-66
2023/02/22 11:01:31;;;;;;;14.70;4.85;;;12.60;96.70;;;;;;4955661;28;20037;-66
2023/02/22 11:04:16;;;;;;;10.55;4.03;;;12.70;96.60;;;;;;4963521;28;20043;-66
2023/02/22 11:06:43;;;;;;;;;;;12.70;96.30;;;;;;4970525;28;20034;-65
2023/02/22 11:09:16;;;;;;;15.43;4.88;;;12.70;96.70;;;;;;4949869;28;19911;-65
2023/02/22 11:11:45;;;;;;;14.10;5.07;;;12.70;96.50;;;;;;4956390;28;20046;-65
2023/02/22 11:14:23;;;;;;;16.38;4.63;;;12.70;96.40;;;;;;4959332;28;20046;-64
2023/02/22 11:16:55;;;;;;;15.38;5.60;;;12.70;96.30;;;;;;4973036;28;20441;-64
2023/02/22 11:19:24;;;;;;;15.40;4.40;;;12.80;96.20;;;;;;4956498;28;20034;-64
2023/02/22 11:21:53;;;;;;;13.48;4.80;;;12.80;96.00;;;;;;4970566;28;20097;-64
2023/02/22 11:24:23;;;;;;;9.23;4.38;;;12.80;96.00;;;;;;4963735;28;20078;-64
2023/02/22 11:27:03;;;;;;;14.43;5.43;;;12.80;96.00;;;;;;4956161;28;20086;-64
2023/02/22 11:29:35;;;;;;;11.57;4.22;;;12.90;96.00;;;;;;4963688;28;20054;-64
2023/02/22 11:32:23;;;;;;;16.45;4.97;;;12.90;95.90;;;;;;4964681;28;20600;-64
2023/02/22 11:34:51;;;;;;;13.57;4.90;;;12.90;95.80;;;;;;4962978;28;20029;-65
2023/02/22 11:37:21;;;;;;;18.17;4.07;;;12.90;95.80;;;;;;4956258;28;20070;-65
2023/02/22 11:39:50;;;;;;;15.45;5.25;;;12.90;95.80;;;;;;4969300;28;20133;-65
2023/02/22 11:42:27;;;;;;;16.73;5.70;;;12.90;95.70;;;;;;4961423;28;20035;-65
2023/02/22 11:45:11;;;;;;;11.55;4.53;;;12.90;95.60;;;;;;4963575;28;20146;-65
2023/02/22 11:47:46;;;;;;;;;;;12.90;95.60;;;;;;4965296;28;20089;-65
2023/02/22 11:50:27;;;;;;;12.02;4.90;;;12.90;95.90;;;;;;4963090;28;19926;-66
2023/02/22 11:53:10;;;;;;;17.95;4.88;;;12.90;95.60;;;;;;4948523;28;20151;-65
2023/02/22 11:56:08;;;;;;;13.70;4.22;;;12.80;95.50;;;;;;4973803;28;20386;-64
2023/02/22 11:58:52;;;;;;;16.30;4.97;;;12.90;95.60;;;;;;4966579;28;20031;-65
2023/02/22 12:01:30;;;;;;;14.23;4.07;;;12.90;95.50;;;;;;4958238;28;20066;-65
2023/02/22 12:04:07;;;;;;;12.95;3.63;;;12.90;95.40;;;;;;4958890;28;20478;-64
2023/02/22 12:07:08;;;;;;;15.98;5.10;;;12.90;95.30;;;;;;4969799;28;20038;-64
2023/02/22 12:09:51;;;;;;;11.52;3.17;;;13.00;95.20;;;;;;4948590;28;20031;-64
2023/02/22 12:12:51;;;;;;;13.02;4.20;;;13.00;95.20;;;;;;4973005;28;20042;-67
2023/02/22 12:15:42;;;;;;;16.58;5.22;;;13.00;95.10;;;;;;4953315;28;20023;-68
2023/02/22 12:18:24;;;;;;;13.00;3.95;;;13.00;95.10;;;;;;4961025;28;20034;-67
2023/02/22 12:20:56;;;;;;;11.95;4.05;;;13.00;95.10;;;;;;4974042;28;20106;-69
2023/02/22 12:23:28;;;;;;;18.50;5.53;;;13.00;95.10;;;;;;4967953;28;20096;-69
2023/02/22 12:26:09;;;;;;;18.95;4.88;;;13.00;95.10;;;;;;4972369;28;20377;-70
2023/02/22 12:28:50;;;;;;;11.00;3.90;;;13.00;94.90;;;;;;4954557;28;20031;-71
2023/02/22 12:31:24;;;;;;;12.77;5.28;;;13.10;95.00;;;;;;4969987;28;20045;-68
2023/02/22 12:34:02;;;;;;;15.10;4.80;;;13.10;94.90;;;;;;4971462;28;20564;-69
2023/02/22 12:36:53;;;;;;;15.73;4.35;;;13.10;94.90;;;;;;4972338;28;20042;-69
2023/02/22 12:39:34;;;;;;;11.35;4.10;;;13.10;94.80;;;;;;4972251;28;20065;-68
2023/02/22 12:42:10;;;;;;;10.68;3.75;;;13.10;94.80;;;;;;4971343;28;20034;-67
2023/02/22 12:44:40;;;;;;;15.20;4.97;;;13.10;94.60;;;;;;4966047;28;20045;-68
2023/02/22 12:47:09;;;;;;;15.45;4.18;;;13.10;94.60;;;;;;4955962;28;20029;-67
2023/02/22 12:49:40;;;;;;;13.27;3.70;;;13.10;94.50;;;;;;4970614;28;20022;-67
2023/02/22 12:52:12;;;;;;;12.75;4.25;;;13.20;94.50;;;;;;4955740;28;20029;-67
2023/02/22 12:54:55;;;;;;;12.15;3.55;;;13.20;94.30;;;;;;4965758;28;20066;-67
2023/02/22 12:57:40;;;;;;;10.27;3.55;;;13.20;94.30;;;;;;4971113;28;20038;-68
2023/02/22 13:00:25;;;;;;;16.38;4.90;;;13.20;94.10;;;;;;4971928;28;20043;-68
2023/02/22 13:03:26;;;;;;;10.93;4.32;;;13.20;93.90;;;;;;4970601;28;20475;-69